createdAt,value
2022-10-24T00:01:01.066Z,31.90
2022-10-24T00:03:35.930Z,32.16
2022-10-24T00:06:08.078Z,31.58
2022-10-24T00:08:36.846Z,32.02
2022-10-24T00:11:10.197Z,31.33
2022-10-24T00:13:38.761Z,31.90
2022-10-24T00:16:07.678Z,31.78
2022-10-24T00:18:36.122Z,31.52
2022-10-24T00:21:05.245Z,31.57
2022-10-24T00:23:35.158Z,31.23
2022-10-24T00:26:04.290Z,31.42
2022-10-24T00:28:33.334Z,31.27
2022-10-24T00:31:01.950Z,31.18
2022-10-24T00:33:30.197Z,31.29
2022-10-24T00:35:58.338Z,31.17
2022-10-24T00:38:26.860Z,31.29
2022-10-24T00:40:56.525Z,31.16
2022-10-24T00:43:26.345Z,30.88
2022-10-24T00:45:56.067Z,31.08
2022-10-24T00:48:26.938Z,30.93
2022-10-24T00:50:58.361Z,30.86
2022-10-24T00:53:27.689Z,31.37
2022-10-24T00:56:00.007Z,30.55
2022-10-24T00:58:31.496Z,30.91
2022-10-24T01:00:59.772Z,31.27
2022-10-24T01:03:28.510Z,31.18
2022-10-24T01:06:07.867Z,30.16
2022-10-24T01:08:40.957Z,30.32
2022-10-24T01:11:18.813Z,30.42
2022-10-24T01:13:53.108Z,30.51
2022-10-24T01:16:25.831Z,30.51
2022-10-24T01:18:57.382Z,30.46
2022-10-24T01:21:30.565Z,30.28
2022-10-24T01:24:07.298Z,30.43
2022-10-24T01:27:01.036Z,29.87
2022-10-24T01:29:43.258Z,30.11
2022-10-24T01:32:15.088Z,30.61
2022-10-24T01:34:46.356Z,30.25
2022-10-24T01:37:18.525Z,30.38
2022-10-24T01:39:50.084Z,30.56
2022-10-24T01:42:18.863Z,29.29
2022-10-24T01:44:50.384Z,30.28
2022-10-24T01:47:20.941Z,30.59
2022-10-24T01:49:52.817Z,30.74
2022-10-24T01:52:21.784Z,31.23
2022-10-24T01:54:52.185Z,31.26
2022-10-24T01:57:20.290Z,31.00
2022-10-24T01:59:50.444Z,30.89
2022-10-24T02:02:21.547Z,30.88
2022-10-24T02:04:53.353Z,30.36
2022-10-24T02:07:23.222Z,30.62
2022-10-24T02:09:55.054Z,30.41
2022-10-24T02:12:27.413Z,30.54
2022-10-24T02:14:59.842Z,30.33
2022-10-24T02:19:57.507Z,31.08
2022-10-24T02:22:29.521Z,30.52
2022-10-24T02:25:02.426Z,30.63
2022-10-24T02:27:34.422Z,30.66
2022-10-24T02:30:07.928Z,30.49
2022-10-24T02:32:40.125Z,30.58
2022-10-24T02:35:09.997Z,30.89
2022-10-24T02:37:41.390Z,30.29
2022-10-24T02:40:09.937Z,29.27
2022-10-24T02:42:38.309Z,30.97
2022-10-24T02:45:11.209Z,30.77
2022-10-24T02:47:41.977Z,30.60
2022-10-24T02:50:10.912Z,31.28
2022-10-24T02:52:39.302Z,31.61
2022-10-24T02:55:08.440Z,31.58
2022-10-24T02:57:36.588Z,31.42
2022-10-24T03:00:05.543Z,31.41
2022-10-24T03:02:35.595Z,30.98
2022-10-24T03:05:04.082Z,31.23
2022-10-24T03:07:32.231Z,31.14
2022-10-24T03:10:00.680Z,31.13
2022-10-24T03:12:28.950Z,31.14
2022-10-24T03:14:57.337Z,31.36
2022-10-24T03:17:25.471Z,31.45
2022-10-24T03:19:55.452Z,30.61
2022-10-24T03:22:25.463Z,30.99
2022-10-24T03:24:57.055Z,31.09
2022-10-24T03:27:25.110Z,31.16
2022-10-24T03:29:53.426Z,31.21
2022-10-24T03:32:21.605Z,31.37
2022-10-24T03:34:49.964Z,30.95
2022-10-24T03:37:19.898Z,30.48
2022-10-24T03:39:48.382Z,31.08
2022-10-24T03:42:16.614Z,31.27
2022-10-24T03:44:44.934Z,31.10
2022-10-24T03:47:13.188Z,30.89
2022-10-24T03:49:41.507Z,31.15
2022-10-24T03:52:09.985Z,31.20
2022-10-24T03:54:39.761Z,30.58
2022-10-24T03:57:10.021Z,31.20
2022-10-24T03:59:38.967Z,31.01
2022-10-24T04:02:07.040Z,31.20
2022-10-24T04:04:35.580Z,31.64
2022-10-24T04:07:05.769Z,31.79
2022-10-24T04:09:34.291Z,31.74
2022-10-24T04:12:03.922Z,31.77
2022-10-24T04:14:32.305Z,31.94
2022-10-24T04:17:00.560Z,32.51
2022-10-24T04:19:28.945Z,32.29
2022-10-24T04:21:57.236Z,32.08
2022-10-24T04:24:25.552Z,32.43
2022-10-24T04:26:53.732Z,32.59
2022-10-24T04:29:23.587Z,32.03
2022-10-24T04:31:51.787Z,32.13
2022-10-24T04:34:20.027Z,32.05
2022-10-24T04:36:48.298Z,32.01
2022-10-24T04:39:16.549Z,32.28
2022-10-24T04:41:44.848Z,32.52
2022-10-24T04:44:13.205Z,32.30
2022-10-24T04:46:42.712Z,31.99
2022-10-24T04:49:11.152Z,32.54
2022-10-24T04:51:39.327Z,31.96
2022-10-24T04:54:08.506Z,32.38
2022-10-24T04:56:36.569Z,32.32
2022-10-24T04:59:05.046Z,32.64
2022-10-24T05:01:33.684Z,32.66
2022-10-24T05:04:03.546Z,31.82
2022-10-24T05:06:31.777Z,32.49
2022-10-24T05:09:00.110Z,32.59
2022-10-24T05:11:28.323Z,32.66
2022-10-24T05:13:56.643Z,32.20
2022-10-24T05:16:24.837Z,32.25
2022-10-24T05:18:53.106Z,32.18
2022-10-24T05:21:22.726Z,31.73
2022-10-24T05:23:51.191Z,32.22
2022-10-24T05:26:19.233Z,33.00
2022-10-24T05:28:51.599Z,32.50
2022-10-24T05:31:21.196Z,32.42
2022-10-24T05:33:49.642Z,31.98
2022-10-24T05:36:17.775Z,31.81
2022-10-24T05:38:47.527Z,31.51
2022-10-24T05:41:15.586Z,32.27
2022-10-24T05:43:43.949Z,31.87
2022-10-24T05:46:12.143Z,32.23
2022-10-24T05:48:40.446Z,31.83
2022-10-24T05:51:08.495Z,31.82
2022-10-24T05:53:37.148Z,32.26
2022-10-24T05:56:07.305Z,31.21
2022-10-24T05:58:35.853Z,31.47
2022-10-24T06:01:04.012Z,31.20
2022-10-24T06:03:32.325Z,31.24
2022-10-24T06:06:05.254Z,30.20
2022-10-24T06:08:35.038Z,30.58
2022-10-24T06:11:03.454Z,30.82
2022-10-24T06:13:35.382Z,29.95
2022-10-24T06:16:04.633Z,29.91
2022-10-24T06:18:33.586Z,29.38
2022-10-24T06:21:02.331Z,29.41
2022-10-24T06:23:31.107Z,29.52
2022-10-24T06:25:59.600Z,29.49
2022-10-24T06:28:27.936Z,29.72
2022-10-24T06:30:57.613Z,29.26
2022-10-24T06:33:26.084Z,29.48
2022-10-24T06:35:54.324Z,29.26
2022-10-24T06:38:22.699Z,28.95
2022-10-24T06:40:50.793Z,28.65
2022-10-24T06:43:19.668Z,29.33
2022-10-24T06:45:47.752Z,29.16
2022-10-24T06:48:17.660Z,28.70
2022-10-24T06:50:45.728Z,28.97
2022-10-24T06:53:15.667Z,28.68
2022-10-24T06:55:43.858Z,28.58
2022-10-24T06:58:12.820Z,28.16
2022-10-24T07:00:40.894Z,28.27
2022-10-24T07:03:09.210Z,28.09
2022-10-24T07:05:39.801Z,27.24
2022-10-24T07:08:08.165Z,26.75
2022-10-24T07:10:36.381Z,25.62
2022-10-24T07:13:04.871Z,24.05
2022-10-24T07:15:36.034Z,23.42
2022-10-24T07:18:07.118Z,23.74
2022-10-24T07:20:35.437Z,23.48
2022-10-24T07:23:05.269Z,22.37
2022-10-24T07:25:33.488Z,21.50
2022-10-24T07:28:01.897Z,20.85
2022-10-24T07:30:30.118Z,18.79
2022-10-24T07:32:58.548Z,17.62
2022-10-24T07:35:27.036Z,16.89
2022-10-24T07:37:55.389Z,16.97
2022-10-24T07:40:25.021Z,18.94
2022-10-24T07:42:53.293Z,20.35
2022-10-24T07:45:21.383Z,20.97
2022-10-24T07:47:50.068Z,20.65
2022-10-24T07:50:18.374Z,21.05
2022-10-24T07:52:46.686Z,20.70
2022-10-24T07:55:15.011Z,19.43
2022-10-24T07:57:44.838Z,18.16
2022-10-24T08:00:14.172Z,18.70
2022-10-24T08:02:42.848Z,20.04
2022-10-24T08:05:12.094Z,20.59
2022-10-24T08:07:40.376Z,21.80
2022-10-24T08:10:10.431Z,22.06
2022-10-24T08:12:38.697Z,22.25
2022-10-24T08:15:08.961Z,21.60
2022-10-24T08:17:37.536Z,21.06
2022-10-24T08:20:06.449Z,21.28
2022-10-24T08:22:34.908Z,21.52
2022-10-24T08:25:06.176Z,22.07
2022-10-24T08:27:34.275Z,20.78
2022-10-24T08:30:02.501Z,22.47
2022-10-24T08:32:32.226Z,22.74
2022-10-24T08:35:00.511Z,22.75
2022-10-24T08:37:28.963Z,23.20
2022-10-24T08:39:57.179Z,23.56
2022-10-24T08:42:26.294Z,24.03
2022-10-24T08:44:55.351Z,23.80
2022-10-24T08:47:30.685Z,23.59
2022-10-24T08:50:05.890Z,23.57
2022-10-24T08:52:36.878Z,23.79
2022-10-24T08:55:20.272Z,23.84
2022-10-24T08:57:54.985Z,24.00
2022-10-24T09:00:26.307Z,24.26
2022-10-24T09:02:57.396Z,24.24
2022-10-24T09:05:29.669Z,24.33
2022-10-24T09:08:02.650Z,24.42
2022-10-24T09:10:39.996Z,24.08
2022-10-24T09:13:14.187Z,23.99
2022-10-24T09:15:43.317Z,24.02
2022-10-24T09:18:16.982Z,23.37
2022-10-24T09:20:46.696Z,23.45
2022-10-24T09:23:15.479Z,23.11
2022-10-24T09:25:45.883Z,22.89
2022-10-24T09:28:14.283Z,23.28
2022-10-24T09:30:42.980Z,23.28
2022-10-24T09:33:20.466Z,22.69
2022-10-24T09:35:51.259Z,22.52
2022-10-24T09:38:33.696Z,21.42
2022-10-24T09:41:04.985Z,21.55
2022-10-24T09:43:38.877Z,21.30
2022-10-24T09:46:09.096Z,20.98
2022-10-24T09:48:46.404Z,20.44
2022-10-24T09:51:26.409Z,19.80
2022-10-24T09:54:05.493Z,19.30
2022-10-24T09:56:38.880Z,19.64
2022-10-24T09:59:20.667Z,19.12
2022-10-24T10:01:49.644Z,19.25
2022-10-24T10:04:19.364Z,17.65
2022-10-24T10:06:51.146Z,16.45
2022-10-24T10:09:27.175Z,15.46
2022-10-24T10:12:03.993Z,15.20
2022-10-24T10:14:33.133Z,14.32
2022-10-24T10:17:02.833Z,13.51
2022-10-24T10:19:33.030Z,13.10
2022-10-24T10:22:04.443Z,12.43
2022-10-24T10:24:39.671Z,11.25
2022-10-24T10:27:32.287Z,9.80
2022-10-24T10:30:20.185Z,9.54
2022-10-24T10:33:12.602Z,9.43
2022-10-24T10:35:44.324Z,9.49
2022-10-24T10:38:28.992Z,9.49
2022-10-24T10:41:01.744Z,9.68
2022-10-24T10:43:33.646Z,9.73
2022-10-24T10:46:16.890Z,10.83
2022-10-24T10:49:02.518Z,10.31
2022-10-24T10:51:38.208Z,10.51
2022-10-24T10:54:14.121Z,9.68
2022-10-24T10:56:46.982Z,9.55
2022-10-24T10:59:30.154Z,8.59
2022-10-24T11:02:02.314Z,8.25
2022-10-24T11:04:35.249Z,7.75
2022-10-24T11:07:11.176Z,7.30
2022-10-24T11:09:44.104Z,6.88
2022-10-24T11:12:17.214Z,6.88
2022-10-24T11:14:49.501Z,6.77
2022-10-24T11:17:21.433Z,6.43
2022-10-24T11:20:06.501Z,6.27
2022-10-24T11:22:38.743Z,6.37
2022-10-24T11:25:10.948Z,6.27
2022-10-24T11:27:42.500Z,6.34
2022-10-24T11:30:15.224Z,6.35
2022-10-24T11:32:49.058Z,6.54
2022-10-24T11:35:25.765Z,6.95
2022-10-24T11:37:58.159Z,7.94
2022-10-24T11:40:30.230Z,8.57
2022-10-24T11:43:03.780Z,9.74
2022-10-24T11:45:35.851Z,11.05
2022-10-24T11:48:13.456Z,11.90
2022-10-24T11:50:48.255Z,12.26
2022-10-24T11:53:25.059Z,13.15
2022-10-24T11:55:58.550Z,13.78
2022-10-24T11:58:29.213Z,14.77
2022-10-24T12:01:12.546Z,14.88
2022-10-24T12:03:59.534Z,15.75
2022-10-24T12:06:41.836Z,15.87
2022-10-24T12:09:21.319Z,16.62
2022-10-24T12:12:12.045Z,16.86
2022-10-24T12:14:58.318Z,16.76
2022-10-24T12:17:37.215Z,17.57
2022-10-24T12:20:07.782Z,18.28
2022-10-24T12:22:39.441Z,18.42
2022-10-24T12:25:16.238Z,18.98
2022-10-24T12:27:45.913Z,19.12
2022-10-24T12:30:19.447Z,19.20
2022-10-24T12:32:49.627Z,19.97
2022-10-24T12:35:38.799Z,19.14
2022-10-24T12:38:17.022Z,19.66
2022-10-24T12:40:52.258Z,19.68
2022-10-24T12:43:36.021Z,20.08
2022-10-24T12:46:37.802Z,20.28
2022-10-24T12:49:24.238Z,20.39
2022-10-24T12:51:54.233Z,21.22
2022-10-24T12:54:40.190Z,20.38
2022-10-24T12:57:32.783Z,19.96
2022-10-24T13:00:02.787Z,20.77
2022-10-24T13:03:04.825Z,20.15
2022-10-24T13:05:48.993Z,20.40
2022-10-24T13:08:30.636Z,20.75
2022-10-24T13:11:11.924Z,20.55
2022-10-24T13:13:54.993Z,20.85
2022-10-24T13:16:33.360Z,20.70
2022-10-24T13:19:09.556Z,21.04
2022-10-24T13:21:46.851Z,20.52
2022-10-24T13:24:30.354Z,20.06
2022-10-24T13:27:25.346Z,20.11
2022-10-24T13:30:35.194Z,19.88
2022-10-24T13:33:42.902Z,20.38
2022-10-24T13:36:18.027Z,21.38
2022-10-24T13:38:51.892Z,21.71
2022-10-24T13:41:25.673Z,21.50
2022-10-24T13:43:55.031Z,21.95
2022-10-24T13:46:28.172Z,21.76
2022-10-24T13:48:57.661Z,21.76
2022-10-24T13:51:36.821Z,21.82
2022-10-24T13:54:09.783Z,21.50
2022-10-24T13:56:40.629Z,21.88
2022-10-24T13:59:27.729Z,21.58
2022-10-24T14:01:56.434Z,22.52
2022-10-24T14:04:25.363Z,22.80
2022-10-24T14:07:01.879Z,22.53
2022-10-24T14:09:30.209Z,23.60
2022-10-24T14:11:59.662Z,23.51
2022-10-24T14:14:30.367Z,23.11
2022-10-24T14:17:23.192Z,22.61
2022-10-24T14:19:55.405Z,23.35
2022-10-24T14:22:28.099Z,23.43
2022-10-24T14:24:57.362Z,23.90
2022-10-24T14:27:25.942Z,24.00
2022-10-24T14:30:00.156Z,24.12
2022-10-24T14:32:30.195Z,24.13
2022-10-24T14:37:37.018Z,23.67
2022-10-24T14:40:06.568Z,24.27
2022-10-24T14:42:35.024Z,24.91
2022-10-24T14:45:03.633Z,24.84
2022-10-24T14:47:34.697Z,24.46
2022-10-24T14:50:04.594Z,25.04
2022-10-24T14:52:37.091Z,24.57
2022-10-24T14:55:08.202Z,24.92
2022-10-24T14:57:36.984Z,25.24
2022-10-24T15:00:08.467Z,24.93
2022-10-24T15:02:42.051Z,25.03
2022-10-24T15:05:28.718Z,24.62
2022-10-24T15:08:21.767Z,24.87
2022-10-24T15:10:51.396Z,25.53
2022-10-24T15:13:21.651Z,25.43
2022-10-24T15:15:55.212Z,24.94
2022-10-24T15:18:25.418Z,25.68
2022-10-24T15:20:56.145Z,25.59
2022-10-24T15:23:29.211Z,25.54
2022-10-24T15:26:03.507Z,25.22
2022-10-24T15:28:46.994Z,25.13
2022-10-24T15:31:17.040Z,26.09
2022-10-24T15:33:47.895Z,25.97
2022-10-24T15:36:20.812Z,25.43
2022-10-24T15:38:55.067Z,25.39
2022-10-24T15:41:23.522Z,26.45
2022-10-24T15:43:52.317Z,26.48
2022-10-24T15:46:22.037Z,26.26
2022-10-24T15:48:50.602Z,26.25
2022-10-24T15:51:20.990Z,26.22
2022-10-24T15:53:51.636Z,26.18
2022-10-24T15:56:20.036Z,26.71
2022-10-24T16:01:27.481Z,26.27
2022-10-24T16:03:56.079Z,26.40
2022-10-24T16:06:24.610Z,26.39
2022-10-24T16:08:54.651Z,25.86
2022-10-24T16:11:24.447Z,26.24
2022-10-24T16:13:53.071Z,26.42
2022-10-24T16:16:21.800Z,26.35
2022-10-24T16:18:50.179Z,26.64
2022-10-24T16:21:20.753Z,26.07
2022-10-24T16:26:20.953Z,26.41
2022-10-24T16:28:49.378Z,26.73
2022-10-24T16:31:19.883Z,26.35
2022-10-24T16:33:48.575Z,26.33
2022-10-24T16:36:20.803Z,26.70
2022-10-24T16:38:52.221Z,26.61
2022-10-24T16:41:23.633Z,26.35
2022-10-24T16:43:54.427Z,26.57
2022-10-24T16:46:24.801Z,26.76
2022-10-24T16:48:53.105Z,27.01
2022-10-24T16:51:25.143Z,26.70
2022-10-24T16:53:53.487Z,27.19
2022-10-24T16:56:23.526Z,27.01
2022-10-24T16:58:51.929Z,27.54
2022-10-24T17:01:22.248Z,27.54
2022-10-24T17:03:50.830Z,27.35
2022-10-24T17:06:19.795Z,27.77
2022-10-24T17:08:48.445Z,27.66
2022-10-24T17:11:43.246Z,27.64
2022-10-24T17:16:40.265Z,27.73
2022-10-24T17:19:17.252Z,27.84
2022-10-24T17:21:48.187Z,27.79
2022-10-24T17:24:18.093Z,27.92
2022-10-24T17:26:47.551Z,28.17
2022-10-24T17:29:25.414Z,27.30
2022-10-24T17:31:54.247Z,27.60
2022-10-24T17:34:23.345Z,27.87
2022-10-24T17:36:57.879Z,27.68
2022-10-24T17:39:29.072Z,28.12
2022-10-24T17:41:57.551Z,26.36
2022-10-24T17:44:28.297Z,27.46
2022-10-24T17:46:58.374Z,27.71
2022-10-24T17:49:26.826Z,28.39
2022-10-24T17:51:55.338Z,28.21
2022-10-24T17:54:23.776Z,28.35
2022-10-24T17:56:52.393Z,28.56
2022-10-24T17:59:22.115Z,28.32
2022-10-24T18:01:52.236Z,27.82
2022-10-24T18:04:21.323Z,28.44
2022-10-24T18:06:49.818Z,28.48
2022-10-24T18:09:18.189Z,28.41
2022-10-24T18:11:46.935Z,28.62
2022-10-24T18:14:15.431Z,28.55
2022-10-24T18:16:43.884Z,28.49
2022-10-24T18:19:13.657Z,28.39
2022-10-24T18:21:42.400Z,28.76
2022-10-24T18:24:11.025Z,29.06
2022-10-24T18:26:39.541Z,29.05
2022-10-24T18:29:07.812Z,29.01
2022-10-24T18:31:36.330Z,29.01
2022-10-24T18:34:08.492Z,29.44
2022-10-24T18:36:38.837Z,29.19
2022-10-24T18:39:07.685Z,29.14
2022-10-24T18:41:39.780Z,28.58
2022-10-24T18:44:22.843Z,28.18
2022-10-24T18:46:53.050Z,28.79
2022-10-24T18:49:22.133Z,28.87
2022-10-24T18:52:01.686Z,28.40
2022-10-24T18:54:30.769Z,28.90
2022-10-24T18:57:00.865Z,28.89
2022-10-24T18:59:31.157Z,29.19
2022-10-24T19:02:10.354Z,28.05
2022-10-24T19:04:41.927Z,28.40
2022-10-24T19:07:12.279Z,28.66
2022-10-24T19:09:41.157Z,29.08
2022-10-24T19:12:10.684Z,28.98
2022-10-24T19:14:39.683Z,29.07
2022-10-24T19:17:08.931Z,29.27
2022-10-24T19:19:37.417Z,29.52
2022-10-24T19:22:05.835Z,29.41
2022-10-24T19:24:35.364Z,28.69
2022-10-24T19:27:03.998Z,29.06
2022-10-24T19:29:32.393Z,29.33
2022-10-24T19:32:01.278Z,29.76
2022-10-24T19:34:30.972Z,29.46
2022-10-24T19:37:00.177Z,29.72
2022-10-24T19:39:31.564Z,30.07
2022-10-24T19:42:03.807Z,30.07
2022-10-24T19:44:32.159Z,30.84
2022-10-24T19:47:00.691Z,30.99
2022-10-24T19:49:28.977Z,30.95
2022-10-24T19:51:59.757Z,31.17
2022-10-24T19:54:28.360Z,31.00
2022-10-24T19:56:57.348Z,31.11
2022-10-24T19:59:31.921Z,30.80
2022-10-24T20:02:00.528Z,31.53
2022-10-24T20:04:28.978Z,31.81
2022-10-24T20:06:57.578Z,31.71
2022-10-24T20:09:26.206Z,31.77
2022-10-24T20:11:54.547Z,32.30
2022-10-24T20:14:24.595Z,32.78
2022-10-24T20:16:54.380Z,32.95
2022-10-24T20:19:22.481Z,33.39
2022-10-24T20:21:50.832Z,33.51
2022-10-24T20:24:19.085Z,33.20
2022-10-24T20:26:47.374Z,33.31
2022-10-24T20:29:15.754Z,33.26
2022-10-24T20:31:46.543Z,33.17
2022-10-24T20:34:16.431Z,32.99
2022-10-24T20:36:47.384Z,33.10
2022-10-24T20:39:20.840Z,32.97
2022-10-24T20:41:53.212Z,33.43
2022-10-24T20:44:22.755Z,33.32
2022-10-24T20:46:53.291Z,33.42
2022-10-24T20:49:22.799Z,33.24
2022-10-24T20:51:51.146Z,33.66
2022-10-24T20:54:19.745Z,33.56
2022-10-24T20:56:48.143Z,33.68
2022-10-24T20:59:17.038Z,33.72
2022-10-24T21:01:45.893Z,33.77
2022-10-24T21:04:16.934Z,33.80
2022-10-24T21:06:49.953Z,33.21
2022-10-24T21:09:18.266Z,33.67
2022-10-24T21:11:46.702Z,33.77
2022-10-24T21:14:15.025Z,33.60
2022-10-24T21:16:43.605Z,33.57
2022-10-24T21:19:11.792Z,33.51
2022-10-24T21:21:40.764Z,33.64
2022-10-24T21:24:15.277Z,33.04
2022-10-24T21:26:44.005Z,33.39
2022-10-24T21:29:32.157Z,33.86
2022-10-24T21:32:00.699Z,33.85
2022-10-24T21:34:31.734Z,33.69
2022-10-24T21:37:03.218Z,33.94
2022-10-24T21:39:32.993Z,33.25
2022-10-24T21:42:01.622Z,33.46
2022-10-24T21:44:30.115Z,33.85
2022-10-24T21:46:58.615Z,33.66
2022-10-24T21:49:26.922Z,33.72
2022-10-24T21:51:55.277Z,33.83
2022-10-24T21:54:25.331Z,33.43
2022-10-24T21:56:55.007Z,33.31
2022-10-24T21:59:23.824Z,33.50
2022-10-24T22:01:53.347Z,33.37
2022-10-24T22:04:22.034Z,33.65
2022-10-24T22:06:51.098Z,33.84
2022-10-24T22:09:20.531Z,34.06
2022-10-24T22:11:48.907Z,34.22
2022-10-24T22:14:19.195Z,33.81
2022-10-24T22:16:47.807Z,33.90
2022-10-24T22:19:16.309Z,34.26
2022-10-24T22:21:46.750Z,33.68
2022-10-24T22:24:16.427Z,33.71
2022-10-24T22:26:45.121Z,34.25
2022-10-24T22:29:16.181Z,33.77
2022-10-24T22:31:46.133Z,32.01
2022-10-24T22:34:17.419Z,33.23
2022-10-24T22:36:56.898Z,33.13
2022-10-24T22:39:27.813Z,33.57
2022-10-24T22:41:56.978Z,33.72
2022-10-24T22:44:25.969Z,33.80
2022-10-24T22:47:26.000Z,32.74
2022-10-24T22:50:01.248Z,32.96
2022-10-24T22:52:30.164Z,33.73
2022-10-24T22:54:58.854Z,33.96
2022-10-24T22:57:27.742Z,34.05
2022-10-24T22:59:56.596Z,33.42
2022-10-24T23:02:30.210Z,32.65
2022-10-24T23:05:05.094Z,33.04
2022-10-24T23:07:39.676Z,32.71
2022-10-24T23:10:12.094Z,33.08
2022-10-24T23:12:41.318Z,33.82
2022-10-24T23:15:14.015Z,32.67
2022-10-24T23:17:45.726Z,33.25
2022-10-24T23:20:37.074Z,33.04
2022-10-24T23:23:17.115Z,33.89
2022-10-24T23:25:57.674Z,32.83
2022-10-24T23:28:31.853Z,32.92
2022-10-24T23:31:01.017Z,33.62
2022-10-24T23:33:31.336Z,33.22
2022-10-24T23:36:01.374Z,33.58
2022-10-24T23:38:30.268Z,33.38
2022-10-24T23:40:58.891Z,33.34
2022-10-24T23:43:28.020Z,33.18
2022-10-24T23:45:59.756Z,33.03
2022-10-24T23:48:49.874Z,32.14
2022-10-24T23:51:21.889Z,33.18
2022-10-24T23:53:53.005Z,33.40
2022-10-24T23:56:23.065Z,33.17
2022-10-24T23:58:52.036Z,33.31
